LGTSLGSY

Guest
Details From LGTS - Thessalonik Makedonia
To LGSY - SKIROS
Flight Number -
Tags generated
Created
Modified
Stats Distance 117 nm / 216 km
Max Altitude 9,200 ft / 2,804 m
Waypoints 3
Social Downloads 1
Likes 0
Share VATSIM

Download

Looking for another format? Having issues loading an existing format? Contact us
Advertisement - Login to hide

Notes

Basic altitude profile: - Ascent Rate: 2500ft/min - Ascent Speed: 250kts - Cruise Altitude: 35000ft - Cruise Speed: 420kts - Descent Rate: 1500ft/min - Descent Speed: 250kts Options: - Use NATs: yes - Use PACOTS: yes - Use low airways: yes - Use high airways: yes

Route

LGTS OSMOS LGSY

ID Type Via Altitude Latitude Longitude Leg Dist Tot Dist Heading (true) Name
O LGTS APT - 0 ft / 0 m 40.51952˚ 22.97202˚ - 0 nm - Thessalonik Makedonia
OSMOS FIX - 9,200 ft / 2,804 m 40.14778˚ 23.26250˚ 25 nm 25 nm 149° / 149° -
O LGSY APT - 0 ft / 0 m 38.96755˚ 24.48723˚ 90 nm 116 nm 141° / 142° SKIROS

Altitude Profile

Advertisement - Login to hide

LGTS

Details ICAO LGTS (SKG)
Name Thessalonik Makedonia
Region Greece
Timezone Europe/Athens (UTC+2.0)
Stats Elevation 22 ft / 7 m (AMSL)
Location 40.519522° 22.972017°
Runways 2
Magnetic Variation 4.622° E

METAR

LGTS 120050Z VRB02KT CAVOK 02/M01 Q1022 NOSIG

Decode

TAF

TAF LGTS 112300Z 1200/1224 VRB03KT CAVOK BECMG 1201/1203 5000 BR SCT008 PROB40 TEMPO 1203/1207 0800 FG BKN005 BECMG 1207/1209 9999 FEW030 BECMG 1222/1224 5000 BR SCT008

Decode

Departure Runways

ID Width Length Bearing (true) Bearing (mag) Surface Threshold Offset Overrun Length
10 164 ft / 50 m 7,990 ft / 2,435 m 103.95° 99.33° Asphalt 0 ft / 0 m 150 ft / 46 m
16 197 ft / 60 m 7,927 ft / 2,416 m 166.35° 161.73° Asphalt 0 ft / 0 m 200 ft / 61 m
28 164 ft / 50 m 7,990 ft / 2,435 m 283.97° 279.35° Asphalt 0 ft / 0 m 150 ft / 46 m
34 197 ft / 60 m 7,927 ft / 2,416 m 346.36° 341.74° Asphalt 0 ft / 0 m 200 ft / 61 m

LGSY

Details ICAO LGSY (SKU)
Name SKIROS
Region Greece
Timezone Europe/Athens (UTC+2.0)
Stats Elevation 44 ft / 13 m (AMSL)
Location 38.967554° 24.487226°
Runways 1
Magnetic Variation 4.657° E

METAR

LGSY 112350Z 00000KT CAVOK 11/07 Q1021 BLU

Decode

TAF

Not found

Destination Runways

ID Width Length Bearing (true) Bearing (mag) Surface Threshold Offset Overrun Length
18 98 ft / 30 m 9,864 ft / 3,006 m 175.81° 171.15° Asphalt 541 ft / 165 m 956 ft / 291 m
36 98 ft / 30 m 9,864 ft / 3,006 m 355.81° 351.15° Asphalt 2,625 ft / 800 m 890 ft / 271 m